createdAt,value
2023-01-10T00:00:58.884Z,1.00
2023-01-10T00:03:26.498Z,1.23
2023-01-10T00:05:55.502Z,1.20
2023-01-10T00:08:23.190Z,1.40
2023-01-10T00:10:50.792Z,2.00
2023-01-10T00:13:24.383Z,1.07
2023-01-10T00:15:52.635Z,1.73
2023-01-10T00:18:20.492Z,1.17
2023-01-10T00:20:49.363Z,1.10
2023-01-10T00:23:24.279Z,1.50
2023-01-10T00:25:51.925Z,1.30
2023-01-10T00:28:20.646Z,1.07
2023-01-10T00:30:57.300Z,1.23
2023-01-10T00:33:24.932Z,1.40
2023-01-10T00:35:52.601Z,1.43
2023-01-10T00:38:21.597Z,1.60
2023-01-10T00:40:49.244Z,1.43
2023-01-10T00:43:34.368Z,1.10
2023-01-10T00:46:02.753Z,1.60
2023-01-10T00:48:31.103Z,1.77
2023-01-10T00:50:58.703Z,1.47
2023-01-10T00:53:28.119Z,1.10
2023-01-10T00:55:55.832Z,1.10
2023-01-10T00:58:23.723Z,1.60
2023-01-10T01:00:51.493Z,1.70
2023-01-10T01:03:20.466Z,1.27
2023-01-10T01:05:49.597Z,1.67
2023-01-10T01:08:18.488Z,1.50
2023-01-10T01:10:47.716Z,1.10
2023-01-10T01:13:21.486Z,1.50
2023-01-10T01:15:49.576Z,1.63
2023-01-10T01:18:20.735Z,1.70
2023-01-10T01:20:49.495Z,2.27
2023-01-10T01:23:17.178Z,1.20
2023-01-10T01:25:44.932Z,1.20
2023-01-10T01:28:14.247Z,1.17
2023-01-10T01:30:41.973Z,0.90
2023-01-10T01:33:09.583Z,1.77
2023-01-10T01:35:37.689Z,2.67
2023-01-10T01:38:05.320Z,1.37
2023-01-10T01:40:32.969Z,1.50
2023-01-10T01:43:00.703Z,1.10
2023-01-10T01:45:39.126Z,1.43
2023-01-10T01:48:21.742Z,1.00
2023-01-10T01:50:54.446Z,0.90
2023-01-10T01:53:28.575Z,1.03
2023-01-10T01:56:01.227Z,1.40
2023-01-10T01:58:35.165Z,0.90
2023-01-10T02:01:04.210Z,1.30
2023-01-10T02:03:32.992Z,0.80
2023-01-10T02:06:01.847Z,0.90
2023-01-10T02:08:29.740Z,0.80
2023-01-10T02:11:06.059Z,1.17
2023-01-10T02:13:35.103Z,1.17
2023-01-10T02:16:04.288Z,1.20
2023-01-10T02:18:32.149Z,0.87
2023-01-10T02:21:31.303Z,1.07
2023-01-10T02:24:28.086Z,0.97
2023-01-10T02:27:28.265Z,1.00
2023-01-10T02:30:31.438Z,0.87
2023-01-10T02:33:06.103Z,1.47
2023-01-10T02:36:03.203Z,1.30
2023-01-10T02:38:41.568Z,1.13
2023-01-10T02:41:17.126Z,1.30
2023-01-10T02:43:51.529Z,1.07
2023-01-10T02:46:25.286Z,1.10
2023-01-10T02:48:55.665Z,0.60
2023-01-10T02:51:27.082Z,0.83
2023-01-10T02:53:59.436Z,0.60
2023-01-10T02:56:49.610Z,0.50
2023-01-10T02:59:33.635Z,0.97
2023-01-10T03:02:09.495Z,0.87
2023-01-10T03:04:50.750Z,1.03
2023-01-10T03:07:24.672Z,0.80
2023-01-10T03:09:57.693Z,0.67
2023-01-10T03:12:30.246Z,0.70
2023-01-10T03:14:59.276Z,1.60
2023-01-10T03:17:30.885Z,0.50
2023-01-10T03:20:03.993Z,0.53
2023-01-10T03:22:34.015Z,0.50
2023-01-10T03:25:02.751Z,0.80
2023-01-10T03:27:38.362Z,0.60
2023-01-10T03:30:14.044Z,0.53
2023-01-10T03:32:42.925Z,0.97
2023-01-10T03:35:13.873Z,0.60
2023-01-10T03:37:48.261Z,1.03
2023-01-10T03:40:22.547Z,0.90
2023-01-10T03:43:16.177Z,0.73
2023-01-10T03:45:49.512Z,1.30
2023-01-10T03:48:19.559Z,1.10
2023-01-10T03:50:50.216Z,0.90
2023-01-10T03:53:18.340Z,0.70
2023-01-10T03:55:46.928Z,0.70
2023-01-10T03:58:14.699Z,0.97
2023-01-10T04:00:42.392Z,0.90
2023-01-10T04:03:11.107Z,1.00
2023-01-10T04:05:38.710Z,0.97
2023-01-10T04:08:07.744Z,0.97
2023-01-10T04:10:35.406Z,0.83
2023-01-10T04:13:03.231Z,1.03
2023-01-10T04:15:31.052Z,1.00
2023-01-10T04:18:00.799Z,0.80
2023-01-10T04:20:28.488Z,1.07
2023-01-10T04:22:56.656Z,0.97
2023-01-10T04:25:25.803Z,0.53
2023-01-10T04:27:55.041Z,0.80
2023-01-10T04:30:22.715Z,0.83
2023-01-10T04:32:50.355Z,0.73
2023-01-10T04:35:18.027Z,0.93
2023-01-10T04:37:45.690Z,1.00
2023-01-10T04:40:17.053Z,1.20
2023-01-10T04:42:46.189Z,1.20
2023-01-10T04:45:17.551Z,1.53
2023-01-10T04:47:49.648Z,1.20
2023-01-10T04:50:17.445Z,1.37
2023-01-10T04:52:45.144Z,1.30
2023-01-10T04:55:16.977Z,1.60
2023-01-10T04:57:45.984Z,1.60
2023-01-10T05:00:14.287Z,1.50
2023-01-10T05:02:44.249Z,1.27
2023-01-10T05:05:12.655Z,1.50
2023-01-10T05:07:40.342Z,1.50
2023-01-10T05:10:09.670Z,1.53
2023-01-10T05:12:37.346Z,2.27
2023-01-10T05:15:07.383Z,1.53
2023-01-10T05:17:35.262Z,1.70
2023-01-10T05:20:02.979Z,1.40
2023-01-10T05:22:30.694Z,1.47
2023-01-10T05:24:58.371Z,1.80
2023-01-10T05:27:26.130Z,1.90
2023-01-10T05:29:53.765Z,1.63
2023-01-10T05:32:24.869Z,2.50
2023-01-10T05:34:52.505Z,2.40
2023-01-10T05:37:20.167Z,1.70
2023-01-10T05:39:47.827Z,1.80
2023-01-10T05:42:15.552Z,1.93
2023-01-10T05:44:43.171Z,1.90
2023-01-10T05:47:10.845Z,1.47
2023-01-10T05:49:39.871Z,1.30
2023-01-10T05:52:08.567Z,1.23
2023-01-10T05:54:36.180Z,1.37
2023-01-10T05:57:03.837Z,1.27
2023-01-10T05:59:37.583Z,1.23
2023-01-10T06:02:05.440Z,0.93
2023-01-10T06:04:33.118Z,1.40
2023-01-10T06:07:02.200Z,0.90
2023-01-10T06:09:29.936Z,1.30
2023-01-10T06:11:57.590Z,0.77
2023-01-10T06:14:25.212Z,1.57
2023-01-10T06:16:52.866Z,1.57
2023-01-10T06:19:20.505Z,1.23
2023-01-10T06:21:48.230Z,1.10
2023-01-10T06:24:17.213Z,1.30
2023-01-10T06:26:44.964Z,1.50
2023-01-10T06:29:12.589Z,0.63
2023-01-10T06:31:40.324Z,0.83
2023-01-10T06:34:07.975Z,0.67
2023-01-10T06:36:35.617Z,1.00
2023-01-10T06:39:03.268Z,1.10
2023-01-10T06:41:32.283Z,0.90
2023-01-10T06:43:59.947Z,1.33
2023-01-10T06:46:27.636Z,0.90
2023-01-10T06:48:55.331Z,0.83
2023-01-10T06:51:23.024Z,1.10
2023-01-10T06:53:50.667Z,1.00
2023-01-10T06:56:18.373Z,1.07
2023-01-10T06:58:49.519Z,0.93
2023-01-10T07:01:19.608Z,1.10
2023-01-10T07:03:47.852Z,1.37
2023-01-10T07:06:15.992Z,1.00
2023-01-10T07:08:45.954Z,0.70
2023-01-10T07:11:15.679Z,0.80
2023-01-10T07:13:43.425Z,1.20
2023-01-10T07:16:14.688Z,1.03
2023-01-10T07:18:43.957Z,1.07
2023-01-10T07:21:12.226Z,1.43
2023-01-10T07:23:40.163Z,1.00
2023-01-10T07:26:10.205Z,1.27
2023-01-10T07:28:38.507Z,1.20
2023-01-10T07:31:07.188Z,1.70
2023-01-10T07:33:36.310Z,1.27
2023-01-10T07:36:04.815Z,1.33
2023-01-10T07:38:32.478Z,1.50
2023-01-10T07:41:02.623Z,1.77
2023-01-10T07:43:30.528Z,1.40
2023-01-10T07:46:00.006Z,1.83
2023-01-10T07:48:28.139Z,1.93
2023-01-10T07:50:58.934Z,2.10
2023-01-10T07:53:27.681Z,1.63
2023-01-10T07:55:55.561Z,1.90
2023-01-10T07:58:23.276Z,2.30
2023-01-10T08:00:51.087Z,2.17
2023-01-10T08:03:19.187Z,2.13
2023-01-10T08:05:46.939Z,1.40
2023-01-10T08:08:17.311Z,1.93
2023-01-10T08:10:45.022Z,2.00
2023-01-10T08:13:18.831Z,1.60
2023-01-10T08:15:50.198Z,2.30
2023-01-10T08:18:18.193Z,2.30
2023-01-10T08:20:47.113Z,2.00
2023-01-10T08:23:16.314Z,2.03
2023-01-10T08:25:44.115Z,2.37
2023-01-10T08:28:11.840Z,2.10
2023-01-10T08:30:40.457Z,3.00
2023-01-10T08:33:09.995Z,2.40
2023-01-10T08:35:39.031Z,2.40
2023-01-10T08:38:07.188Z,2.63
2023-01-10T08:40:36.414Z,4.30
2023-01-10T08:43:06.034Z,2.00
2023-01-10T08:45:34.055Z,2.10
2023-01-10T08:48:01.851Z,2.37
2023-01-10T08:50:29.654Z,2.27
2023-01-10T08:53:10.918Z,1.50
2023-01-10T08:55:40.064Z,2.70
2023-01-10T08:58:07.732Z,1.77
2023-01-10T09:00:35.391Z,2.20
2023-01-10T09:03:03.120Z,1.73
2023-01-10T09:05:30.825Z,1.40
2023-01-10T09:08:02.979Z,1.60
2023-01-10T09:10:31.602Z,1.80
2023-01-10T09:13:01.766Z,0.70
2023-01-10T09:15:32.085Z,1.10
2023-01-10T09:18:02.201Z,0.90
2023-01-10T09:20:30.770Z,0.60
2023-01-10T09:22:59.635Z,0.83
2023-01-10T09:25:27.944Z,1.80
2023-01-10T09:28:01.488Z,0.83
2023-01-10T09:30:30.481Z,1.13
2023-01-10T09:32:59.223Z,1.20
2023-01-10T09:35:29.020Z,1.33
2023-01-10T09:37:58.030Z,1.53
2023-01-10T09:40:44.558Z,1.90
2023-01-10T09:43:23.465Z,2.03
2023-01-10T09:45:57.943Z,2.30
2023-01-10T09:48:32.899Z,2.40
2023-01-10T09:51:13.998Z,2.00
2023-01-10T09:53:44.425Z,2.30
2023-01-10T09:56:15.558Z,2.20
2023-01-10T09:58:46.473Z,2.40
2023-01-10T10:01:17.911Z,2.10
2023-01-10T10:03:53.952Z,2.60
2023-01-10T10:06:23.546Z,1.40
2023-01-10T10:08:53.210Z,2.13
2023-01-10T10:11:50.112Z,2.20
2023-01-10T10:14:32.829Z,1.10
2023-01-10T10:17:13.250Z,1.40
2023-01-10T10:19:56.069Z,0.80
2023-01-10T10:22:31.754Z,1.60
2023-01-10T10:25:15.015Z,1.20
2023-01-10T10:27:56.052Z,1.63
2023-01-10T10:30:38.741Z,2.10
2023-01-10T10:33:29.545Z,1.50
2023-01-10T10:36:03.720Z,1.40
2023-01-10T10:38:37.200Z,1.63
2023-01-10T10:41:06.285Z,1.43
2023-01-10T10:43:36.681Z,1.43
2023-01-10T10:46:09.209Z,1.83
2023-01-10T10:48:42.088Z,1.13
2023-01-10T10:51:18.003Z,1.10
2023-01-10T10:53:46.302Z,1.07
2023-01-10T10:56:16.947Z,1.27
2023-01-10T10:58:47.134Z,1.10
2023-01-10T11:01:17.339Z,0.97
2023-01-10T11:03:48.324Z,1.13
2023-01-10T11:06:19.214Z,0.77
2023-01-10T11:08:49.168Z,0.80
2023-01-10T11:11:21.939Z,1.60
2023-01-10T11:13:55.065Z,1.57
2023-01-10T11:16:31.016Z,1.30
2023-01-10T11:19:18.415Z,0.83
2023-01-10T11:21:53.208Z,0.90
2023-01-10T11:24:33.299Z,1.30
2023-01-10T11:27:04.177Z,0.80
2023-01-10T11:29:39.545Z,1.80
2023-01-10T11:32:15.088Z,1.17
2023-01-10T11:34:48.396Z,1.47
2023-01-10T11:37:21.349Z,0.60
2023-01-10T11:39:49.050Z,2.50
2023-01-10T11:42:29.697Z,1.30
2023-01-10T11:45:15.710Z,1.10
2023-01-10T11:47:49.589Z,1.00
2023-01-10T11:50:21.926Z,1.43
2023-01-10T11:52:51.157Z,1.33
2023-01-10T11:55:21.984Z,1.40
2023-01-10T11:57:59.241Z,1.37
2023-01-10T12:00:34.065Z,1.13
2023-01-10T12:03:03.604Z,0.90
2023-01-10T12:05:32.112Z,1.13
2023-01-10T12:08:06.123Z,1.53
2023-01-10T12:10:35.356Z,1.43
2023-01-10T12:13:14.735Z,1.97
2023-01-10T12:15:43.217Z,1.20
2023-01-10T12:18:13.325Z,1.10
2023-01-10T12:20:47.051Z,1.07
2023-01-10T12:23:20.449Z,1.20
2023-01-10T12:25:50.047Z,1.07
2023-01-10T12:28:21.710Z,1.17
2023-01-10T12:30:51.967Z,1.13
2023-01-10T12:33:23.890Z,1.20
2023-01-10T12:35:57.925Z,1.57
2023-01-10T12:38:55.166Z,1.30
2023-01-10T12:41:45.908Z,1.30
2023-01-10T12:44:19.874Z,1.13
2023-01-10T12:47:06.609Z,1.20
2023-01-10T12:49:43.363Z,0.97
2023-01-10T12:52:18.107Z,1.23
2023-01-10T12:54:48.160Z,1.10
2023-01-10T12:57:27.446Z,1.30
2023-01-10T12:59:56.423Z,1.30
2023-01-10T13:02:29.811Z,1.30
2023-01-10T13:05:02.499Z,1.27
2023-01-10T13:07:34.415Z,1.47
2023-01-10T13:10:03.767Z,0.97
2023-01-10T13:12:37.313Z,1.07
2023-01-10T13:15:12.952Z,1.00
2023-01-10T13:17:45.981Z,0.87
2023-01-10T13:20:27.974Z,1.10
2023-01-10T13:22:57.936Z,1.43
2023-01-10T13:25:28.236Z,0.80
2023-01-10T13:28:03.389Z,0.93
2023-01-10T13:30:34.590Z,1.73
2023-01-10T13:33:05.925Z,1.20
2023-01-10T13:35:44.723Z,0.70
2023-01-10T13:38:19.711Z,1.70
2023-01-10T13:40:58.883Z,1.67
2023-01-10T13:43:34.364Z,1.77
2023-01-10T13:46:35.250Z,1.10
2023-01-10T13:49:40.662Z,0.90
2023-01-10T13:52:34.763Z,1.50
2023-01-10T13:55:23.378Z,1.10
2023-01-10T13:57:59.273Z,1.17
2023-01-10T14:01:01.023Z,1.00
2023-01-10T14:03:44.122Z,1.03
2023-01-10T14:06:41.178Z,0.60
2023-01-10T14:09:44.152Z,1.20
2023-01-10T14:12:24.499Z,1.37
2023-01-10T14:14:56.223Z,1.07
2023-01-10T14:17:26.173Z,1.47
2023-01-10T14:20:17.494Z,1.30
2023-01-10T14:22:58.982Z,1.30
2023-01-10T14:25:28.935Z,1.00
2023-01-10T14:27:59.463Z,1.50
2023-01-10T14:30:30.478Z,1.37
2023-01-10T14:33:02.797Z,1.30
2023-01-10T14:35:36.886Z,1.20
2023-01-10T14:38:06.220Z,1.33
2023-01-10T14:40:40.950Z,1.07
2023-01-10T14:43:13.321Z,1.30
2023-01-10T14:45:49.048Z,1.07
2023-01-10T14:48:31.949Z,1.03
2023-01-10T14:51:21.139Z,1.30
2023-01-10T14:53:55.805Z,1.67
2023-01-10T14:56:25.680Z,1.10
2023-01-10T14:58:54.773Z,1.10
2023-01-10T15:01:28.594Z,1.40
2023-01-10T15:03:56.989Z,1.20
2023-01-10T15:06:26.052Z,1.23
2023-01-10T15:08:59.372Z,1.10
2023-01-10T15:11:28.900Z,1.00
2023-01-10T15:14:03.492Z,0.73
2023-01-10T15:16:32.196Z,0.80
2023-01-10T15:19:00.266Z,0.80
2023-01-10T15:21:28.129Z,0.90
2023-01-10T15:23:56.885Z,1.13
2023-01-10T15:26:30.409Z,1.67
2023-01-10T15:29:13.443Z,1.20
2023-01-10T15:31:42.507Z,0.63
2023-01-10T15:34:12.884Z,1.63
2023-01-10T15:36:44.884Z,1.00
2023-01-10T15:39:20.026Z,1.20
2023-01-10T15:41:47.977Z,2.13
2023-01-10T15:44:36.520Z,1.50
2023-01-10T15:47:04.731Z,1.50
2023-01-10T15:49:32.518Z,1.60
2023-01-10T15:52:00.239Z,1.70
2023-01-10T15:54:34.467Z,1.50
2023-01-10T15:57:07.964Z,1.43
2023-01-10T15:59:40.678Z,2.00
2023-01-10T16:02:22.648Z,1.93
2023-01-10T16:04:53.169Z,2.43
2023-01-10T16:07:24.636Z,3.50
2023-01-10T16:09:57.471Z,1.60
2023-01-10T16:12:45.004Z,2.33
2023-01-10T16:15:20.320Z,2.27
2023-01-10T16:17:49.320Z,1.70
2023-01-10T16:20:18.452Z,1.33
2023-01-10T16:22:47.734Z,1.20
2023-01-10T16:25:21.395Z,1.73
2023-01-10T16:27:49.202Z,1.10
2023-01-10T16:30:25.145Z,1.63
2023-01-10T16:32:53.665Z,0.93
2023-01-10T16:35:21.841Z,1.50
2023-01-10T16:37:49.687Z,1.57
2023-01-10T16:40:23.251Z,1.77
2023-01-10T16:43:08.540Z,1.10
2023-01-10T16:45:38.611Z,1.50
2023-01-10T16:48:07.558Z,1.50
2023-01-10T16:50:35.231Z,2.37
2023-01-10T16:53:05.483Z,1.20
2023-01-10T16:55:42.600Z,1.43
2023-01-10T16:58:14.148Z,1.33
2023-01-10T17:00:45.163Z,2.10
2023-01-10T17:03:16.010Z,1.17
2023-01-10T17:05:43.959Z,1.50
2023-01-10T17:08:24.461Z,1.93
2023-01-10T17:10:56.401Z,1.30
2023-01-10T17:13:27.388Z,1.70
2023-01-10T17:15:56.591Z,2.20
2023-01-10T17:18:28.393Z,1.93
2023-01-10T17:20:56.967Z,1.43
2023-01-10T17:23:25.166Z,2.40
2023-01-10T17:25:59.313Z,1.73
2023-01-10T17:28:27.399Z,2.53
2023-01-10T17:30:57.055Z,2.03
2023-01-10T17:33:25.339Z,2.37
2023-01-10T17:35:55.661Z,3.13
2023-01-10T17:38:25.426Z,2.50
2023-01-10T17:40:53.602Z,3.20
2023-01-10T17:43:22.405Z,2.87
2023-01-10T17:45:51.951Z,2.50
2023-01-10T17:48:21.393Z,2.33
2023-01-10T17:50:50.110Z,2.27
2023-01-10T17:53:19.012Z,3.07
2023-01-10T17:55:47.789Z,3.00
2023-01-10T17:58:19.019Z,3.87
2023-01-10T18:00:48.460Z,2.33
2023-01-10T18:03:16.801Z,3.13
2023-01-10T18:05:53.165Z,2.47
2023-01-10T18:08:20.915Z,2.97
2023-01-10T18:10:48.724Z,3.17
2023-01-10T18:13:18.372Z,2.60
2023-01-10T18:15:48.722Z,3.57
2023-01-10T18:18:16.883Z,2.80
2023-01-10T18:20:45.598Z,2.87
2023-01-10T18:23:24.899Z,2.30
2023-01-10T18:25:54.539Z,3.00
2023-01-10T18:28:39.047Z,2.50
2023-01-10T18:31:08.752Z,2.70
2023-01-10T18:33:36.662Z,2.83
2023-01-10T18:36:05.435Z,2.67
2023-01-10T18:38:35.254Z,2.50
2023-01-10T18:41:03.086Z,2.60
2023-01-10T18:43:31.308Z,2.47
2023-01-10T18:46:04.311Z,3.13
2023-01-10T18:48:32.194Z,1.97
2023-01-10T18:51:03.758Z,2.30
2023-01-10T18:53:31.989Z,2.33
2023-01-10T18:56:04.297Z,2.20
2023-01-10T18:58:33.998Z,2.40
2023-01-10T19:01:06.674Z,2.30
2023-01-10T19:03:34.634Z,1.80
2023-01-10T19:06:03.318Z,2.30
2023-01-10T19:08:31.213Z,2.50
2023-01-10T19:11:15.883Z,1.77
2023-01-10T19:13:46.500Z,2.10
2023-01-10T19:16:16.676Z,2.17
2023-01-10T19:18:45.868Z,1.67
2023-01-10T19:21:15.864Z,3.10
2023-01-10T19:23:47.247Z,2.07
2023-01-10T19:26:15.833Z,2.23
2023-01-10T19:28:45.920Z,2.27
2023-01-10T19:31:16.138Z,2.30
2023-01-10T19:33:44.261Z,3.30
2023-01-10T19:36:14.318Z,3.70
2023-01-10T19:38:42.063Z,3.83
2023-01-10T19:41:09.782Z,5.60
2023-01-10T19:43:37.438Z,3.80
2023-01-10T19:46:11.163Z,4.60
2023-01-10T19:48:39.385Z,3.73
2023-01-10T19:51:08.433Z,4.23
2023-01-10T19:53:37.003Z,3.50
2023-01-10T19:56:09.499Z,3.20
2023-01-10T19:58:38.643Z,4.10
2023-01-10T20:01:15.919Z,3.73
2023-01-10T20:03:46.734Z,3.13
2023-01-10T20:06:16.972Z,2.80
2023-01-10T20:08:46.361Z,2.40
2023-01-10T20:11:15.319Z,3.57
2023-01-10T20:13:45.022Z,3.80
2023-01-10T20:16:15.623Z,3.03
2023-01-10T20:18:43.720Z,2.80
2023-01-10T20:21:13.253Z,3.30
2023-01-10T20:23:42.007Z,3.47
2023-01-10T20:26:12.573Z,2.70
2023-01-10T20:28:41.204Z,3.07
2023-01-10T20:31:10.458Z,3.47
2023-01-10T20:33:39.471Z,3.20
2023-01-10T20:36:09.234Z,3.87
2023-01-10T20:38:37.971Z,3.47
2023-01-10T20:41:07.991Z,3.03
2023-01-10T20:43:36.975Z,3.00
2023-01-10T20:46:06.290Z,2.33
2023-01-10T20:48:34.174Z,2.13
2023-01-10T20:51:03.188Z,2.27
2023-01-10T20:53:31.626Z,2.90
2023-01-10T20:56:02.873Z,2.57
2023-01-10T20:58:30.522Z,3.13
2023-01-10T21:00:58.222Z,2.43
2023-01-10T21:03:26.293Z,3.00
2023-01-10T21:05:55.341Z,2.37
2023-01-10T21:09:21.315Z,3.00
2023-01-10T21:12:04.467Z,2.70
2023-01-10T21:14:53.637Z,2.97
2023-01-10T21:17:21.839Z,2.37
2023-01-10T21:19:49.511Z,3.13
2023-01-10T21:22:17.519Z,2.47
2023-01-10T21:24:45.485Z,1.70
2023-01-10T21:27:14.491Z,2.50
2023-01-10T21:29:44.501Z,2.47
2023-01-10T21:32:13.047Z,3.00
2023-01-10T21:34:40.697Z,1.93
2023-01-10T21:37:08.344Z,2.20
2023-01-10T21:39:36.029Z,2.00
2023-01-10T21:42:21.153Z,2.30
2023-01-10T21:44:50.171Z,1.60
2023-01-10T21:47:17.802Z,1.80
2023-01-10T21:49:45.453Z,1.80
2023-01-10T21:52:13.173Z,2.20
2023-01-10T21:54:40.856Z,2.70
2023-01-10T21:57:10.903Z,2.00
2023-01-10T21:59:40.817Z,2.53
2023-01-10T22:02:13.996Z,1.70
2023-01-10T22:04:41.967Z,1.47
2023-01-10T22:07:09.623Z,2.17
2023-01-10T22:09:37.375Z,2.10
2023-01-10T22:12:05.226Z,1.73
2023-01-10T22:14:32.904Z,2.27
2023-01-10T22:17:00.637Z,2.13
2023-01-10T22:19:29.794Z,2.50
2023-01-10T22:21:57.455Z,2.20
2023-01-10T22:24:25.182Z,2.10
2023-01-10T22:26:54.513Z,1.80
2023-01-10T22:29:22.499Z,2.63
2023-01-10T22:31:50.205Z,2.47
2023-01-10T22:34:18.481Z,2.07
2023-01-10T22:36:47.527Z,1.73
2023-01-10T22:39:15.369Z,1.80
2023-01-10T22:41:43.115Z,2.20
2023-01-10T22:44:18.987Z,2.37
2023-01-10T22:46:47.015Z,2.37
2023-01-10T22:49:14.760Z,1.37
2023-01-10T22:51:42.465Z,2.00
2023-01-10T22:54:13.185Z,1.83
2023-01-10T22:56:40.847Z,1.80
2023-01-10T22:59:08.673Z,2.30
2023-01-10T23:01:36.543Z,1.93
2023-01-10T23:04:04.616Z,1.37
2023-01-10T23:06:32.597Z,1.70
2023-01-10T23:09:00.401Z,3.10
2023-01-10T23:11:29.393Z,1.57
2023-01-10T23:13:57.079Z,1.60
2023-01-10T23:16:28.761Z,1.30
2023-01-10T23:18:57.429Z,1.40
2023-01-10T23:21:25.213Z,1.33
2023-01-10T23:23:53.261Z,1.23
2023-01-10T23:26:20.980Z,1.10
2023-01-10T23:28:51.692Z,1.20
2023-01-10T23:31:21.875Z,0.90
2023-01-10T23:33:50.902Z,1.10
2023-01-10T23:36:19.444Z,1.53
2023-01-10T23:38:47.169Z,0.97
2023-01-10T23:41:14.950Z,1.10
2023-01-10T23:43:43.545Z,1.23
2023-01-10T23:46:12.666Z,0.90
2023-01-10T23:48:40.510Z,0.90
2023-01-10T23:51:11.405Z,0.80
2023-01-10T23:53:39.317Z,1.20
2023-01-10T23:56:08.463Z,0.83
2023-01-10T23:58:36.207Z,0.60
